Time;durP1;ratioP1;P1;durP2;ratioP2;P2;SDS_P1;SDS_P2;PMS_P1;PMS_P2;Temp;Humidity;BMP_temperature;BMP_pressure;BME280_temperature;BME280_humidity;BME280_pressure;Samples;Min_cycle;Max_cycle;Signal;HPM_P1;HPM_P2
2023/12/07 00:00:05;;;;;;;25.85;18.85;;;;;;;;;;5586774;31;35073;-68
2023/12/07 00:03:08;;;;;;;18.15;14.80;;;;;;;;;;5586548;31;34633;-68
2023/12/07 00:06:10;;;;;;;21.75;16.87;;;;;;;;;;5588553;31;34398;-68
2023/12/07 00:09:13;;;;;;;22.67;17.30;;;;;;;;;;5589628;31;34578;-68
2023/12/07 00:12:15;;;;;;;27.37;19.05;;;;;;;;;;5589529;31;34340;-68
2023/12/07 00:15:18;;;;;;;24.70;16.30;;;;;;;;;;5589619;31;34737;-69
2023/12/07 00:18:21;;;;;;;14.32;12.07;;;;;;;;;;5589469;31;34301;-69
2023/12/07 00:21:23;;;;;;;17.90;13.45;;;;;;;;;;5589521;31;34405;-70
2023/12/07 00:24:26;;;;;;;17.75;13.88;;;;;;;;;;5589602;31;34296;-70
2023/12/07 00:27:28;;;;;;;15.85;12.65;;;;;;;;;;5589490;31;34328;-70
2023/12/07 00:30:31;;;;;;;17.27;12.07;;;;;;;;;;5589449;31;35122;-70
2023/12/07 00:33:34;;;;;;;16.65;9.88;;;;;;;;;;5589686;31;34515;-70
2023/12/07 00:36:36;;;;;;;12.77;9.52;;;;;;;;;;5589328;31;34314;-70
2023/12/07 00:39:40;;;;;;;11.40;9.10;;;;;;;;;;5589406;31;35050;-70
2023/12/07 00:42:43;;;;;;;13.75;9.52;;;;;;;;;;5589353;31;34264;-70
2023/12/07 00:45:46;;;;;;;11.40;8.48;;;;;;;;;;5589140;31;35334;-70
2023/12/07 00:48:48;;;;;;;11.60;9.00;;;;;;;;;;5588575;31;35067;-70
2023/12/07 00:51:51;;;;;;;9.18;6.35;;;;;;;;;;5589719;31;34279;-69
2023/12/07 00:54:53;;;;;;;9.60;7.03;;;;;;;;;;5589308;31;35045;-70
2023/12/07 00:58:12;;;;;;;7.87;6.55;;;;;;;;;;5589339;31;34539;-69
2023/12/07 01:01:14;;;;;;;6.10;5.50;;;;;;;;;;5589347;31;35139;-70
2023/12/07 01:04:17;;;;;;;8.10;6.15;;;;;;;;;;5589293;31;34503;-70
2023/12/07 01:07:21;;;;;;;6.12;5.28;;;;;;;;;;5589281;31;34527;-70
2023/12/07 01:10:24;;;;;;;6.18;5.43;;;;;;;;;;5589545;31;34232;-70
2023/12/07 01:13:26;;;;;;;6.72;5.20;;;;;;;;;;5589234;31;35027;-69
2023/12/07 01:16:29;;;;;;;6.60;5.62;;;;;;;;;;5588029;31;34680;-69
2023/12/07 01:19:31;;;;;;;6.53;4.90;;;;;;;;;;5588537;31;34133;-69
2023/12/07 01:22:34;;;;;;;5.62;4.65;;;;;;;;;;5589032;31;34363;-70
2023/12/07 01:25:38;;;;;;;5.90;5.20;;;;;;;;;;5589357;31;35090;-69
2023/12/07 01:28:41;;;;;;;5.87;5.22;;;;;;;;;;5589025;31;35112;-70
2023/12/07 01:31:43;;;;;;;6.10;5.50;;;;;;;;;;5589019;31;34408;-69
2023/12/07 01:34:46;;;;;;;9.05;5.65;;;;;;;;;;5589325;31;35057;-69
2023/12/07 01:37:49;;;;;;;6.53;5.65;;;;;;;;;;5588948;31;34378;-69
2023/12/07 01:40:51;;;;;;;7.87;6.55;;;;;;;;;;5589316;31;34506;-69
2023/12/07 01:43:54;;;;;;;7.30;6.43;;;;;;;;;;5588990;31;34930;-70
2023/12/07 01:46:59;;;;;;;7.95;7.15;;;;;;;;;;5588746;31;34645;-69
2023/12/07 01:50:04;;;;;;;8.77;7.50;;;;;;;;;;5588855;31;34276;-70
2023/12/07 01:53:10;;;;;;;8.82;7.93;;;;;;;;;;5588871;31;35083;-69
2023/12/07 01:56:13;;;;;;;9.60;8.60;;;;;;;;;;5588851;31;34151;-70
2023/12/07 01:59:16;;;;;;;10.10;9.02;;;;;;;;;;5588903;31;34354;-70
2023/12/07 02:02:20;;;;;;;9.50;8.50;;;;;;;;;;5588922;31;34604;-70
2023/12/07 02:05:24;;;;;;;10.93;9.82;;;;;;;;;;5588684;31;34417;-70
2023/12/07 02:08:27;;;;;;;10.77;9.48;;;;;;;;;;5588756;31;34988;-70
2023/12/07 02:11:29;;;;;;;10.68;9.57;;;;;;;;;;5588566;31;34993;-71
2023/12/07 02:14:34;;;;;;;9.95;8.90;;;;;;;;;;5588653;31;34340;-71
2023/12/07 02:17:49;;;;;;;9.25;8.30;;;;;;;;;;5587808;31;34515;-71
2023/12/07 02:21:01;;;;;;;9.85;8.73;;;;;;;;;;5588642;31;34414;-72
2023/12/07 02:24:04;;;;;;;9.27;8.10;;;;;;;;;;5588643;31;34988;-73
2023/12/07 02:27:08;;;;;;;9.45;8.55;;;;;;;;;;5588433;31;35073;-72
2023/12/07 02:30:11;;;;;;;10.25;8.85;;;;;;;;;;5588024;31;34406;-73
2023/12/07 02:33:15;;;;;;;9.48;8.02;;;;;;;;;;5588469;31;34218;-73
2023/12/07 02:36:19;;;;;;;8.77;7.57;;;;;;;;;;5588375;31;35080;-72
2023/12/07 02:39:23;;;;;;;8.80;7.80;;;;;;;;;;5588375;31;34209;-73
2023/12/07 02:42:26;;;;;;;9.07;7.75;;;;;;;;;;5588299;31;34993;-73
2023/12/07 02:45:29;;;;;;;7.35;6.65;;;;;;;;;;5588335;31;34310;-74
2023/12/07 02:48:31;;;;;;;8.30;6.75;;;;;;;;;;5588044;31;35298;-74
2023/12/07 02:51:34;;;;;;;7.57;6.78;;;;;;;;;;5588187;31;34576;-74
2023/12/07 02:54:36;;;;;;;7.22;6.53;;;;;;;;;;5588127;31;34295;-76
2023/12/07 02:57:39;;;;;;;7.87;7.07;;;;;;;;;;5588339;31;34551;-75
2023/12/07 03:00:42;;;;;;;8.20;7.40;;;;;;;;;;5588045;31;35138;-76
2023/12/07 03:03:45;;;;;;;7.95;7.07;;;;;;;;;;5587987;31;34339;-74
2023/12/07 03:06:47;;;;;;;7.57;6.87;;;;;;;;;;5587842;31;34394;-74
2023/12/07 03:09:50;;;;;;;7.97;7.12;;;;;;;;;;5587869;31;35122;-74
2023/12/07 03:12:52;;;;;;;8.27;7.47;;;;;;;;;;5587719;31;35169;-74
2023/12/07 03:15:54;;;;;;;7.90;7.10;;;;;;;;;;5587779;31;34152;-74
2023/12/07 03:18:58;;;;;;;9.32;7.10;;;;;;;;;;5587482;31;34844;-75
2023/12/07 03:22:01;;;;;;;8.10;7.28;;;;;;;;;;5587643;31;34395;-74
2023/12/07 03:25:03;;;;;;;9.05;7.95;;;;;;;;;;5587493;31;34458;-74
2023/12/07 03:28:06;;;;;;;8.45;7.25;;;;;;;;;;5587499;31;34473;-74
2023/12/07 03:31:09;;;;;;;7.60;6.80;;;;;;;;;;5587629;31;34365;-74
2023/12/07 03:34:15;;;;;;;7.97;7.18;;;;;;;;;;5587446;31;35082;-74
2023/12/07 03:37:18;;;;;;;7.93;7.10;;;;;;;;;;5587516;31;35146;-73
2023/12/07 03:40:20;;;;;;;8.38;7.50;;;;;;;;;;5588324;31;34127;-74
2023/12/07 03:43:23;;;;;;;8.70;7.68;;;;;;;;;;5590287;31;34410;-73
2023/12/07 03:46:25;;;;;;;8.38;7.53;;;;;;;;;;5589831;31;34381;-72
2023/12/07 03:49:28;;;;;;;8.90;6.93;;;;;;;;;;5590024;31;35388;-72
2023/12/07 03:52:31;;;;;;;8.68;7.68;;;;;;;;;;5589852;31;34389;-72
2023/12/07 03:55:33;;;;;;;9.15;7.82;;;;;;;;;;5589750;31;34584;-72
2023/12/07 03:58:35;;;;;;;8.45;7.55;;;;;;;;;;5589774;31;33839;-72
2023/12/07 04:01:38;;;;;;;8.68;7.55;;;;;;;;;;5589645;31;35120;-72
2023/12/07 04:04:42;;;;;;;9.63;8.27;;;;;;;;;;5589655;31;34479;-72
2023/12/07 04:07:44;;;;;;;9.00;7.93;;;;;;;;;;5589552;31;34510;-71
2023/12/07 04:10:47;;;;;;;7.40;6.68;;;;;;;;;;5589740;31;34262;-71
2023/12/07 04:13:49;;;;;;;7.53;6.72;;;;;;;;;;5589710;31;34573;-71
2023/12/07 04:16:52;;;;;;;7.55;6.55;;;;;;;;;;5589423;31;35110;-72
2023/12/07 04:19:54;;;;;;;7.85;6.78;;;;;;;;;;5589809;31;35318;-71
2023/12/07 04:22:57;;;;;;;7.37;6.45;;;;;;;;;;5589496;31;34428;-72
2023/12/07 04:25:59;;;;;;;7.95;7.15;;;;;;;;;;5589449;31;34371;-72
2023/12/07 04:29:02;;;;;;;8.50;7.18;;;;;;;;;;5589438;31;34945;-71
2023/12/07 04:32:06;;;;;;;9.13;8.02;;;;;;;;;;5589476;31;34442;-73
2023/12/07 04:35:09;;;;;;;10.20;7.47;;;;;;;;;;5589222;31;34261;-71
2023/12/07 04:38:11;;;;;;;8.32;7.50;;;;;;;;;;5589683;31;34341;-71
2023/12/07 04:41:14;;;;;;;8.93;7.82;;;;;;;;;;5589377;31;34287;-71
2023/12/07 04:44:16;;;;;;;9.48;7.80;;;;;;;;;;5588451;31;34334;-71
2023/12/07 04:47:19;;;;;;;8.02;7.22;;;;;;;;;;5589179;31;34468;-71
2023/12/07 04:50:22;;;;;;;9.48;8.48;;;;;;;;;;5588866;31;35264;-72
2023/12/07 04:53:24;;;;;;;10.35;8.48;;;;;;;;;;5588375;31;34277;-71
2023/12/07 04:56:27;;;;;;;9.38;8.27;;;;;;;;;;5589299;31;34277;-71
2023/12/07 04:59:29;;;;;;;9.57;7.32;;;;;;;;;;5589168;31;34515;-71
2023/12/07 05:02:32;;;;;;;7.45;6.72;;;;;;;;;;5589085;31;35100;-71
2023/12/07 05:05:36;;;;;;;6.30;5.70;;;;;;;;;;5589029;31;34442;-71
2023/12/07 05:08:43;;;;;;;7.05;6.35;;;;;;;;;;5588978;31;34490;-71
2023/12/07 05:11:46;;;;;;;8.95;6.72;;;;;;;;;;5589040;31;34406;-72
2023/12/07 05:14:48;;;;;;;7.68;6.35;;;;;;;;;;5589248;31;35185;-71
2023/12/07 05:17:51;;;;;;;9.57;6.87;;;;;;;;;;5589093;31;32685;-71
2023/12/07 05:20:53;;;;;;;8.38;6.80;;;;;;;;;;5589313;31;35154;-71
2023/12/07 05:23:56;;;;;;;7.45;6.43;;;;;;;;;;5588892;31;35105;-71
2023/12/07 05:26:58;;;;;;;6.75;5.28;;;;;;;;;;5588646;31;34306;-71
2023/12/07 05:30:01;;;;;;;9.40;5.60;;;;;;;;;;5589182;31;35210;-70
2023/12/07 05:33:04;;;;;;;8.68;5.60;;;;;;;;;;5588941;31;34552;-70
2023/12/07 05:36:07;;;;;;;5.93;5.32;;;;;;;;;;5588744;31;35003;-70
2023/12/07 05:39:11;;;;;;;5.55;4.57;;;;;;;;;;5589002;31;34987;-70
2023/12/07 05:42:13;;;;;;;8.25;5.22;;;;;;;;;;5587641;31;34877;-71
2023/12/07 05:45:15;;;;;;;6.65;4.65;;;;;;;;;;5588602;31;35130;-70
2023/12/07 05:48:18;;;;;;;6.72;5.30;;;;;;;;;;5588746;31;34502;-72
2023/12/07 05:51:21;;;;;;;5.75;5.03;;;;;;;;;;5589021;31;35348;-71
2023/12/07 05:54:23;;;;;;;5.12;4.12;;;;;;;;;;5588812;31;34357;-71
2023/12/07 05:57:26;;;;;;;5.20;4.43;;;;;;;;;;5588877;31;34374;-71
2023/12/07 06:00:29;;;;;;;6.75;5.22;;;;;;;;;;5588835;31;34350;-71
2023/12/07 06:03:32;;;;;;;7.20;5.10;;;;;;;;;;5588279;31;34517;-71
2023/12/07 06:06:35;;;;;;;6.68;5.10;;;;;;;;;;5588870;31;35154;-72
2023/12/07 06:09:37;;;;;;;6.32;5.45;;;;;;;;;;5588703;31;34273;-71
2023/12/07 06:12:40;;;;;;;7.62;6.20;;;;;;;;;;5589024;31;34222;-71
2023/12/07 06:15:42;;;;;;;5.93;5.32;;;;;;;;;;5588614;31;34518;-71
2023/12/07 06:18:45;;;;;;;7.82;6.37;;;;;;;;;;5588513;31;35098;-71
2023/12/07 06:21:47;;;;;;;6.12;5.53;;;;;;;;;;5588209;31;34724;-71
2023/12/07 06:24:50;;;;;;;9.15;6.45;;;;;;;;;;5588390;31;34493;-71
2023/12/07 06:27:53;;;;;;;6.03;5.40;;;;;;;;;;5588415;31;34320;-71
2023/12/07 06:30:57;;;;;;;7.22;5.30;;;;;;;;;;5588343;31;34379;-71
2023/12/07 06:34:02;;;;;;;5.70;5.00;;;;;;;;;;5588219;31;34440;-71
2023/12/07 06:37:05;;;;;;;5.95;4.87;;;;;;;;;;5587930;31;34282;-70
2023/12/07 06:40:11;;;;;;;8.25;4.97;;;;;;;;;;5587631;31;35041;-71
2023/12/07 06:43:14;;;;;;;6.07;4.45;;;;;;;;;;5587403;31;34413;-71
2023/12/07 06:46:17;;;;;;;13.90;9.35;;;;;;;;;;5587595;31;34252;-70
2023/12/07 06:49:19;;;;;;;9.35;7.12;;;;;;;;;;5587366;31;34422;-70
2023/12/07 06:52:22;;;;;;;8.77;6.60;;;;;;;;;;5587184;31;35253;-70
2023/12/07 06:55:25;;;;;;;10.88;7.93;;;;;;;;;;5587483;31;34453;-70
2023/12/07 06:58:28;;;;;;;12.90;10.27;;;;;;;;;;5587703;31;35058;-70
2023/12/07 07:01:30;;;;;;;10.45;8.98;;;;;;;;;;5586763;31;34252;-72
2023/12/07 07:04:33;;;;;;;14.13;9.55;;;;;;;;;;5587774;31;34666;-70
2023/12/07 07:07:36;;;;;;;15.73;11.65;;;;;;;;;;5588089;31;34338;-71
2023/12/07 07:10:38;;;;;;;14.77;11.25;;;;;;;;;;5587873;31;35019;-71
2023/12/07 07:13:41;;;;;;;16.27;13.15;;;;;;;;;;5587388;31;35051;-71
2023/12/07 07:16:44;;;;;;;18.37;13.30;;;;;;;;;;5589833;31;34483;-71
2023/12/07 07:19:46;;;;;;;17.17;13.20;;;;;;;;;;5590007;31;34489;-71
2023/12/07 07:22:49;;;;;;;16.27;12.73;;;;;;;;;;5589864;31;35380;-71
2023/12/07 07:25:52;;;;;;;19.08;14.43;;;;;;;;;;5589886;31;35156;-72
2023/12/07 07:28:54;;;;;;;17.00;14.63;;;;;;;;;;5589891;31;35010;-71
2023/12/07 07:31:57;;;;;;;20.37;14.00;;;;;;;;;;5589809;31;34393;-71
2023/12/07 07:35:01;;;;;;;17.95;14.15;;;;;;;;;;5589500;31;34222;-71
2023/12/07 07:38:03;;;;;;;21.73;16.10;;;;;;;;;;5590004;31;34286;-70
2023/12/07 07:41:06;;;;;;;19.92;15.65;;;;;;;;;;5589393;31;34323;-70
2023/12/07 07:44:08;;;;;;;20.90;15.98;;;;;;;;;;5589298;31;34279;-70
2023/12/07 07:47:11;;;;;;;22.52;17.02;;;;;;;;;;5589608;31;34414;-70
2023/12/07 07:50:13;;;;;;;21.40;15.38;;;;;;;;;;5589642;31;35034;-70
2023/12/07 07:53:16;;;;;;;22.30;15.23;;;;;;;;;;5589062;31;35273;-70
2023/12/07 07:56:19;;;;;;;14.65;11.85;;;;;;;;;;5589356;31;35118;-70
2023/12/07 07:59:22;;;;;;;14.70;12.10;;;;;;;;;;5589619;31;34481;-70
2023/12/07 08:02:24;;;;;;;16.37;12.23;;;;;;;;;;5588833;31;34182;-70
2023/12/07 08:05:27;;;;;;;15.27;12.37;;;;;;;;;;5589679;31;35090;-70
2023/12/07 08:08:29;;;;;;;15.75;12.48;;;;;;;;;;5589549;31;34468;-70
2023/12/07 08:11:33;;;;;;;16.62;12.60;;;;;;;;;;5589432;31;34417;-70
2023/12/07 08:14:35;;;;;;;16.52;13.13;;;;;;;;;;5589752;31;35085;-69
2023/12/07 08:17:42;;;;;;;17.23;13.30;;;;;;;;;;5589604;31;34964;-69
2023/12/07 08:20:44;;;;;;;17.17;13.75;;;;;;;;;;5589526;31;34699;-69
2023/12/07 08:23:47;;;;;;;19.15;14.23;;;;;;;;;;5589411;31;35266;-69
2023/12/07 08:26:49;;;;;;;20.77;14.18;;;;;;;;;;5589490;31;34317;-69
2023/12/07 08:29:52;;;;;;;21.48;15.90;;;;;;;;;;5589692;31;35104;-70
2023/12/07 08:32:54;;;;;;;23.40;16.60;;;;;;;;;;5589795;31;35006;-69
2023/12/07 08:35:57;;;;;;;24.37;16.40;;;;;;;;;;5589612;31;34407;-70
2023/12/07 08:39:00;;;;;;;22.75;17.15;;;;;;;;;;5589725;31;35093;-69
2023/12/07 08:42:03;;;;;;;23.05;16.98;;;;;;;;;;5589309;31;35086;-69
2023/12/07 08:45:05;;;;;;;25.62;17.58;;;;;;;;;;5589462;31;34422;-70
2023/12/07 08:48:08;;;;;;;25.80;17.50;;;;;;;;;;5589554;31;32692;-69
2023/12/07 08:51:10;;;;;;;34.47;20.42;;;;;;;;;;5589573;31;34282;-69
2023/12/07 08:54:13;;;;;;;26.42;17.60;;;;;;;;;;5589269;31;34566;-69
2023/12/07 08:57:17;;;;;;;23.98;17.92;;;;;;;;;;5589356;31;34574;-69
2023/12/07 09:00:23;;;;;;;24.77;16.90;;;;;;;;;;5589447;31;35053;-69
2023/12/07 09:03:31;;;;;;;21.55;16.65;;;;;;;;;;5589283;31;34354;-69
2023/12/07 09:06:34;;;;;;;22.87;17.60;;;;;;;;;;5589350;31;34383;-69
2023/12/07 09:09:37;;;;;;;22.67;17.58;;;;;;;;;;5589176;31;35083;-68
2023/12/07 09:12:39;;;;;;;23.40;18.23;;;;;;;;;;5588406;31;34261;-69
2023/12/07 09:15:42;;;;;;;25.48;17.73;;;;;;;;;;5588728;31;34375;-68
2023/12/07 09:18:46;;;;;;;22.00;17.30;;;;;;;;;;5588582;31;35012;-68
2023/12/07 09:21:48;;;;;;;22.37;17.42;;;;;;;;;;5589157;31;34952;-69
2023/12/07 09:24:51;;;;;;;21.92;16.98;;;;;;;;;;5589026;31;34399;-68
2023/12/07 09:27:54;;;;;;;23.33;16.20;;;;;;;;;;5589091;31;35034;-69
2023/12/07 09:30:57;;;;;;;17.33;14.80;;;;;;;;;;5588363;31;35183;-69
2023/12/07 09:33:59;;;;;;;25.23;17.23;;;;;;;;;;5589091;31;34265;-69
2023/12/07 09:37:14;;;;;;;20.73;16.23;;;;;;;;;;5588286;31;35230;-70
2023/12/07 09:40:20;;;;;;;19.77;15.73;;;;;;;;;;5588956;31;34513;-69
2023/12/07 09:43:24;;;;;;;18.60;14.63;;;;;;;;;;5588192;31;35084;-70
2023/12/07 09:46:27;;;;;;;17.62;14.60;;;;;;;;;;5588656;31;34580;-70
2023/12/07 09:49:30;;;;;;;19.50;15.77;;;;;;;;;;5588805;31;34178;-70
2023/12/07 09:52:33;;;;;;;21.12;15.82;;;;;;;;;;5588987;31;34397;-70
2023/12/07 09:55:36;;;;;;;18.75;15.38;;;;;;;;;;5588692;31;34734;-70
2023/12/07 09:58:42;;;;;;;17.77;15.20;;;;;;;;;;5588746;31;35142;-70
2023/12/07 10:01:45;;;;;;;19.85;14.73;;;;;;;;;;5589197;31;35062;-71
2023/12/07 10:04:48;;;;;;;18.27;15.35;;;;;;;;;;5588799;31;35114;-71
2023/12/07 10:07:51;;;;;;;18.80;15.52;;;;;;;;;;5588525;31;35164;-70
2023/12/07 10:11:04;;;;;;;18.95;15.70;;;;;;;;;;5588655;31;34539;-71
2023/12/07 10:14:07;;;;;;;17.08;14.13;;;;;;;;;;5588323;31;35127;-71
2023/12/07 10:17:10;;;;;;;16.58;13.80;;;;;;;;;;5588521;31;34291;-71
2023/12/07 10:20:14;;;;;;;16.62;14.80;;;;;;;;;;5588531;31;34424;-70
2023/12/07 10:23:17;;;;;;;19.95;15.63;;;;;;;;;;5588709;31;35036;-71
2023/12/07 10:26:20;;;;;;;18.42;14.98;;;;;;;;;;5588200;31;34721;-71
2023/12/07 10:29:24;;;;;;;19.87;14.55;;;;;;;;;;5588594;31;34583;-72
2023/12/07 10:32:34;;;;;;;;;;;;;;;;;;5588979;31;34589;-71
2023/12/07 10:35:40;;;;;;;22.37;13.68;;;;;;;;;;5588443;31;34522;-71
2023/12/07 10:38:45;;;;;;;16.23;13.73;;;;;;;;;;5588332;31;35140;-71
2023/12/07 10:41:49;;;;;;;18.17;13.23;;;;;;;;;;5588217;31;34334;-71
2023/12/07 10:44:56;;;;;;;16.58;13.32;;;;;;;;;;5588992;31;34357;-72
2023/12/07 10:48:08;;;;;;;14.25;12.75;;;;;;;;;;5592549;31;34968;-71
2023/12/07 10:51:18;;;;;;;14.25;12.25;;;;;;;;;;5585870;31;34433;-72
2023/12/07 10:54:22;;;;;;;15.45;12.18;;;;;;;;;;5588744;31;34465;-70
2023/12/07 10:57:24;;;;;;;15.98;13.00;;;;;;;;;;5588003;31;34802;-71
2023/12/07 11:00:29;;;;;;;16.33;13.23;;;;;;;;;;5589438;31;34912;-70
2023/12/07 11:03:46;;;;;;;17.55;12.85;;;;;;;;;;5589275;31;34515;-71
2023/12/07 11:06:50;;;;;;;16.17;14.02;;;;;;;;;;5587821;31;35151;-71
2023/12/07 11:10:02;;;;;;;13.62;12.20;;;;;;;;;;5588021;31;34401;-70
2023/12/07 11:13:08;;;;;;;16.75;13.25;;;;;;;;;;5586749;31;35095;-70
2023/12/07 11:16:11;;;;;;;16.25;12.57;;;;;;;;;;5587309;31;34647;-69
2023/12/07 11:19:36;;;;;;;16.37;13.52;;;;;;;;;;5587541;31;34976;-69
2023/12/07 11:22:40;;;;;;;16.33;13.15;;;;;;;;;;5587448;31;35005;-70
2023/12/07 11:25:44;;;;;;;15.88;12.35;;;;;;;;;;5587479;31;35023;-69
2023/12/07 11:28:46;;;;;;;15.65;13.88;;;;;;;;;;5587048;31;35222;-70
2023/12/07 11:31:50;;;;;;;16.02;13.60;;;;;;;;;;5587666;31;34412;-70
2023/12/07 11:34:52;;;;;;;16.40;13.27;;;;;;;;;;5587444;31;34363;-70
2023/12/07 11:38:11;;;;;;;16.92;13.25;;;;;;;;;;5586379;31;33151;-69
2023/12/07 11:41:14;;;;;;;16.60;12.52;;;;;;;;;;5587195;31;34445;-69
2023/12/07 11:44:17;;;;;;;18.30;13.48;;;;;;;;;;5587337;31;34592;-70
2023/12/07 11:47:20;;;;;;;14.77;13.18;;;;;;;;;;5586934;31;34570;-69
2023/12/07 11:50:23;;;;;;;15.05;13.38;;;;;;;;;;5586617;31;34526;-69
2023/12/07 11:53:30;;;;;;;16.40;13.98;;;;;;;;;;5586508;31;35137;-68
2023/12/07 11:56:33;;;;;;;16.23;13.25;;;;;;;;;;5586688;31;35032;-69
2023/12/07 11:59:36;;;;;;;15.80;13.40;;;;;;;;;;5586460;31;34655;-70
2023/12/07 12:02:39;;;;;;;17.37;13.65;;;;;;;;;;5588815;31;34326;-69
2023/12/07 12:05:43;;;;;;;16.83;14.05;;;;;;;;;;5589549;31;35143;-69
2023/12/07 12:08:46;;;;;;;17.77;14.25;;;;;;;;;;5589473;31;35074;-69
2023/12/07 12:11:49;;;;;;;17.37;14.55;;;;;;;;;;5589746;31;34685;-69
2023/12/07 12:14:52;;;;;;;16.08;13.93;;;;;;;;;;5585146;31;133292;-70
2023/12/07 12:17:57;;;;;;;15.90;13.38;;;;;;;;;;5589912;31;34461;-70
2023/12/07 12:21:01;;;;;;;16.08;13.60;;;;;;;;;;5589513;31;35033;-70
2023/12/07 12:24:05;;;;;;;19.25;14.35;;;;;;;;;;5588962;31;34447;-71
2023/12/07 12:27:07;;;;;;;16.10;13.48;;;;;;;;;;5589395;31;34210;-70
2023/12/07 12:30:13;;;;;;;16.48;13.57;;;;;;;;;;5589058;31;35357;-70
2023/12/07 12:33:16;;;;;;;13.35;11.77;;;;;;;;;;5589222;31;34292;-70
2023/12/07 12:36:23;;;;;;;17.80;14.02;;;;;;;;;;5588701;31;34247;-69
2023/12/07 12:39:30;;;;;;;15.77;13.20;;;;;;;;;;5589335;31;34375;-69
2023/12/07 12:42:37;;;;;;;14.60;12.10;;;;;;;;;;5589436;31;35078;-68
2023/12/07 12:45:39;;;;;;;17.70;15.05;;;;;;;;;;5589507;31;34097;-69
2023/12/07 12:48:55;;;;;;;18.17;15.27;;;;;;;;;;5588931;31;34314;-68
2023/12/07 12:51:58;;;;;;;21.48;17.45;;;;;;;;;;5589586;31;34530;-69
2023/12/07 12:55:01;;;;;;;24.17;19.45;;;;;;;;;;5589195;31;34653;-70
2023/12/07 12:58:04;;;;;;;24.77;21.25;;;;;;;;;;5589167;31;34268;-70
2023/12/07 13:01:07;;;;;;;27.52;22.90;;;;;;;;;;5588962;31;34519;-69
2023/12/07 13:04:10;;;;;;;29.98;22.77;;;;;;;;;;5589142;31;34439;-69
2023/12/07 13:07:13;;;;;;;29.25;22.15;;;;;;;;;;5589055;31;35123;-71
2023/12/07 13:10:16;;;;;;;31.33;25.45;;;;;;;;;;5589027;31;35090;-70
2023/12/07 13:13:19;;;;;;;31.17;23.95;;;;;;;;;;5588419;31;35127;-70
2023/12/07 13:16:21;;;;;;;28.45;24.33;;;;;;;;;;5588674;31;34447;-70
2023/12/07 13:19:24;;;;;;;31.10;24.50;;;;;;;;;;5589120;31;34330;-71
2023/12/07 13:22:26;;;;;;;28.98;23.90;;;;;;;;;;5588423;31;35017;-70
2023/12/07 13:25:30;;;;;;;32.38;26.50;;;;;;;;;;5588989;31;34521;-69
2023/12/07 13:28:33;;;;;;;34.83;26.55;;;;;;;;;;5588853;31;35152;-67
2023/12/07 13:31:36;;;;;;;30.52;24.92;;;;;;;;;;5589158;31;34754;-68
2023/12/07 13:34:39;;;;;;;28.42;23.45;;;;;;;;;;5588932;31;35023;-68
2023/12/07 13:37:42;;;;;;;30.33;24.10;;;;;;;;;;5588918;31;34419;-69
2023/12/07 13:40:45;;;;;;;26.65;21.60;;;;;;;;;;5588983;31;34457;-69
2023/12/07 13:43:50;;;;;;;28.50;23.20;;;;;;;;;;5588850;31;35026;-67
2023/12/07 13:46:53;;;;;;;31.17;23.75;;;;;;;;;;5588747;31;34307;-67
2023/12/07 13:49:56;;;;;;;28.80;24.02;;;;;;;;;;5588608;31;34763;-67
2023/12/07 13:52:59;;;;;;;31.15;22.77;;;;;;;;;;5588812;31;34425;-67
2023/12/07 13:56:04;;;;;;;31.67;24.63;;;;;;;;;;5588541;31;34566;-67
2023/12/07 13:59:10;;;;;;;29.25;22.98;;;;;;;;;;5588605;31;34641;-67
2023/12/07 14:02:13;;;;;;;30.20;23.00;;;;;;;;;;5588624;31;34648;-67
2023/12/07 14:05:16;;;;;;;26.62;21.50;;;;;;;;;;5588499;31;34442;-67
2023/12/07 14:08:21;;;;;;;30.75;23.35;;;;;;;;;;5588356;31;35080;-67
2023/12/07 14:11:24;;;;;;;28.40;21.75;;;;;;;;;;5588325;31;34548;-69
2023/12/07 14:14:27;;;;;;;29.37;22.75;;;;;;;;;;5588293;31;34440;-66
2023/12/07 14:17:37;;;;;;;31.10;23.83;;;;;;;;;;5588647;31;34334;-68
2023/12/07 14:20:51;;;;;;;28.87;23.55;;;;;;;;;;5588383;31;34143;-66
2023/12/07 14:24:14;;;;;;;32.42;25.02;;;;;;;;;;5587227;31;34332;-66
2023/12/07 14:27:16;;;;;;;37.92;27.40;;;;;;;;;;5588098;31;34350;-66
2023/12/07 14:30:19;;;;;;;34.30;26.10;;;;;;;;;;5587991;31;34547;-67
2023/12/07 14:33:22;;;;;;;36.75;27.98;;;;;;;;;;5587678;31;35244;-67
2023/12/07 14:36:24;;;;;;;34.10;28.15;;;;;;;;;;5588233;31;34441;-67
2023/12/07 14:39:29;;;;;;;32.90;26.92;;;;;;;;;;5588412;31;34248;-68
2023/12/07 14:42:32;;;;;;;33.42;26.80;;;;;;;;;;5588168;31;34371;-67
2023/12/07 14:45:35;;;;;;;31.55;26.12;;;;;;;;;;5587853;31;34460;-67
2023/12/07 14:48:38;;;;;;;34.30;26.20;;;;;;;;;;5588139;31;34587;-67
2023/12/07 14:51:40;;;;;;;33.92;26.27;;;;;;;;;;5587914;31;34375;-66
2023/12/07 14:54:43;;;;;;;29.95;25.02;;;;;;;;;;5587936;31;34382;-67
2023/12/07 14:57:45;;;;;;;34.20;27.02;;;;;;;;;;5588223;31;34348;-68
2023/12/07 15:00:48;;;;;;;37.72;29.90;;;;;;;;;;5587743;31;34516;-66
2023/12/07 15:03:51;;;;;;;57.17;41.53;;;;;;;;;;5587801;31;35341;-67
2023/12/07 15:06:54;;;;;;;58.03;44.03;;;;;;;;;;5587112;31;34505;-67
2023/12/07 15:09:57;;;;;;;57.17;42.50;;;;;;;;;;5587465;31;35088;-66
2023/12/07 15:13:01;;;;;;;56.13;42.05;;;;;;;;;;5586572;31;34441;-67
2023/12/07 15:16:05;;;;;;;58.17;41.53;;;;;;;;;;5587478;31;34380;-67
2023/12/07 15:19:07;;;;;;;55.22;40.72;;;;;;;;;;5587238;31;35076;-66
2023/12/07 15:22:10;;;;;;;50.38;37.65;;;;;;;;;;5587467;31;34326;-66
2023/12/07 15:25:13;;;;;;;55.15;37.95;;;;;;;;;;5586915;31;34584;-66
2023/12/07 15:28:16;;;;;;;54.30;38.80;;;;;;;;;;5587262;31;34414;-66
2023/12/07 15:31:18;;;;;;;50.22;38.83;;;;;;;;;;5586971;31;34359;-66
2023/12/07 15:34:21;;;;;;;48.87;37.72;;;;;;;;;;5587012;31;34586;-66
2023/12/07 15:37:38;;;;;;;59.85;42.75;;;;;;;;;;5589294;31;35002;-66
2023/12/07 15:40:40;;;;;;;57.95;44.25;;;;;;;;;;5589412;31;34493;-66
2023/12/07 15:43:43;;;;;;;64.57;47.47;;;;;;;;;;5589865;31;34340;-67
2023/12/07 15:46:46;;;;;;;62.92;45.88;;;;;;;;;;5589382;31;35199;-66
2023/12/07 15:49:49;;;;;;;62.80;43.78;;;;;;;;;;5589638;31;34540;-66
2023/12/07 15:52:51;;;;;;;59.72;43.72;;;;;;;;;;5589232;31;35278;-66
2023/12/07 15:55:54;;;;;;;59.00;43.87;;;;;;;;;;5589487;31;35248;-66
2023/12/07 15:58:56;;;;;;;53.80;40.92;;;;;;;;;;5589255;31;35087;-66
2023/12/07 16:02:00;;;;;;;47.00;35.50;;;;;;;;;;5589252;31;34552;-66
2023/12/07 16:05:06;;;;;;;40.72;32.03;;;;;;;;;;5589465;31;35318;-67
2023/12/07 16:08:09;;;;;;;41.70;30.92;;;;;;;;;;5588413;31;34543;-67
2023/12/07 16:11:14;;;;;;;39.80;29.55;;;;;;;;;;5589246;31;34573;-68
2023/12/07 16:14:16;;;;;;;34.92;27.10;;;;;;;;;;5589136;31;34426;-67
2023/12/07 16:17:31;;;;;;;35.47;27.33;;;;;;;;;;5588513;31;34531;-67
2023/12/07 16:20:33;;;;;;;31.92;25.27;;;;;;;;;;5589545;31;35108;-68
2023/12/07 16:23:36;;;;;;;34.20;26.23;;;;;;;;;;5589214;31;34705;-67
2023/12/07 16:26:39;;;;;;;36.47;26.90;;;;;;;;;;5589192;31;35014;-66
2023/12/07 16:29:41;;;;;;;34.53;26.65;;;;;;;;;;5588942;31;34462;-66
2023/12/07 16:32:49;;;;;;;38.70;29.67;;;;;;;;;;5589091;31;34533;-66
2023/12/07 16:35:52;;;;;;;39.33;30.25;;;;;;;;;;5589093;31;34628;-65
2023/12/07 16:38:54;;;;;;;38.15;29.35;;;;;;;;;;5589190;31;35082;-66
2023/12/07 16:41:57;;;;;;;37.35;29.70;;;;;;;;;;5589172;31;34997;-66
2023/12/07 16:45:05;;;;;;;39.25;31.23;;;;;;;;;;5589180;31;34967;-68
2023/12/07 16:48:09;;;;;;;37.75;30.37;;;;;;;;;;5589082;31;35148;-66
2023/12/07 16:51:12;;;;;;;39.70;30.62;;;;;;;;;;5588091;31;34441;-66
2023/12/07 16:54:15;;;;;;;39.13;29.30;;;;;;;;;;5588600;31;34385;-66
2023/12/07 16:57:17;;;;;;;35.38;27.85;;;;;;;;;;5589026;31;34539;-66
2023/12/07 17:00:20;;;;;;;34.50;28.00;;;;;;;;;;5589109;31;35154;-65
2023/12/07 17:03:23;;;;;;;38.47;30.15;;;;;;;;;;5589004;31;35116;-65
2023/12/07 17:06:28;;;;;;;35.80;28.42;;;;;;;;;;5588123;31;34799;-65
2023/12/07 17:09:30;;;;;;;40.17;30.70;;;;;;;;;;5589293;31;34450;-65
2023/12/07 17:12:33;;;;;;;41.78;32.30;;;;;;;;;;5589096;31;34989;-65
2023/12/07 17:15:36;;;;;;;36.92;29.58;;;;;;;;;;5588875;31;34363;-65
2023/12/07 17:18:38;;;;;;;40.50;31.40;;;;;;;;;;5588910;31;34312;-65
2023/12/07 17:21:41;;;;;;;44.17;32.95;;;;;;;;;;5588857;31;34481;-65
2023/12/07 17:24:44;;;;;;;39.35;29.65;;;;;;;;;;5588690;31;34500;-65
2023/12/07 17:27:47;;;;;;;38.25;30.12;;;;;;;;;;5588573;31;35053;-65
2023/12/07 17:30:49;;;;;;;40.05;29.45;;;;;;;;;;5588741;31;35068;-65
2023/12/07 17:33:52;;;;;;;35.70;29.08;;;;;;;;;;5589262;31;35133;-65
2023/12/07 17:36:58;;;;;;;39.38;29.17;;;;;;;;;;5588562;31;35194;-66
2023/12/07 17:40:00;;;;;;;36.38;28.90;;;;;;;;;;5588665;31;34272;-66
2023/12/07 17:43:03;;;;;;;37.10;28.85;;;;;;;;;;5588884;31;34970;-66
2023/12/07 17:46:06;;;;;;;36.67;29.02;;;;;;;;;;5588733;31;35106;-66
2023/12/07 17:49:09;;;;;;;38.50;28.73;;;;;;;;;;5588676;31;34343;-67
2023/12/07 17:52:11;;;;;;;38.38;30.55;;;;;;;;;;5588915;31;35077;-66
2023/12/07 17:55:14;;;;;;;36.55;28.92;;;;;;;;;;5588557;31;34410;-66
2023/12/07 17:58:16;;;;;;;37.15;29.67;;;;;;;;;;5587431;31;34362;-66